Danville, Canada
Current Conditions -  °F | °C
As of 10:36 PM on Saturday 22 Nov 2014 (Local Time) from CYSC Reporting Station
Light Snow Light Snow  
Wind Chill: 32°   Ceiling: 1500
Heat Index: 32°   Visibility: 4mi
Dew Point: 30°   Wind: 2mph
Humidity: 93%   Direction: NA
Pressure: 29.88"   Gusts: NA
Location:  45.78°N, 72.02°W
Report Text: CYSC 230336Z AUTO VRB02KT 4SM -SNRA OVC015 00/M01 A2988 RMK SLP129
Loading
Personal Weather Stations






























Interactive Weather Map New forecast layout! Learn more

10-Day Weather Forecast

Advertisements
Track Severe Weather on mobile